Time;durP1;ratioP1;P1;durP2;ratioP2;P2;SDS_P1;SDS_P2;PMS_P1;PMS_P2;Temp;Humidity;BMP_temperature;BMP_pressure;BME280_temperature;BME280_humidity;BME280_pressure;Samples;Min_cycle;Max_cycle;Signal;HPM_P1;HPM_P2
2021/06/28 00:00:39;;;;;;;1.25;1.15;;;21.30;47.90;;;;;;5062665;28;20051;-76
2021/06/28 00:03:05;;;;;;;1.30;1.20;;;21.30;16.10;;;;;;5071868;28;20486;-77
2021/06/28 00:05:31;;;;;;;1.30;1.20;;;21.10;99.90;;;;;;5045444;28;20033;-77
2021/06/28 00:07:57;;;;;;;1.67;1.30;;;21.00;1.00;;;;;;5063230;28;20036;-77
2021/06/28 00:10:25;;;;;;;2.65;1.30;;;20.90;1.00;;;;;;5049654;28;20033;-78
2021/06/28 00:12:54;;;;;;;1.85;1.50;;;20.80;56.70;;;;;;5057723;28;20556;-79
2021/06/28 00:15:23;;;;;;;3.50;1.25;;;20.80;99.90;;;;;;5049367;28;20036;-77
2021/06/28 00:17:50;;;;;;;1.90;1.45;;;20.70;99.90;;;;;;5038213;28;20021;-77
2021/06/28 00:20:16;;;;;;;2.85;1.45;;;20.60;99.90;;;;;;5058842;28;20090;-77
2021/06/28 00:22:42;;;;;;;3.90;1.42;;;20.60;99.90;;;;;;5051946;28;20031;-79
2021/06/28 00:25:10;;;;;;;1.40;1.30;;;20.60;99.90;;;;;;5041273;28;20094;-78
2021/06/28 00:27:40;;;;;;;1.40;1.30;;;20.60;99.90;;;;;;5058883;28;20128;-78
2021/06/28 00:30:10;;;;;;;2.20;1.23;;;20.60;99.90;;;;;;5062277;28;20025;-77
2021/06/28 00:32:36;;;;;;;1.52;1.30;;;20.60;99.90;;;;;;5039885;28;20648;-77
2021/06/28 00:35:03;;;;;;;1.40;1.23;;;20.60;99.90;;;;;;5044480;28;20705;-78
2021/06/28 00:37:29;;;;;;;3.22;1.40;;;20.50;99.90;;;;;;5066059;28;20025;-78
2021/06/28 00:39:55;;;;;;;2.83;1.20;;;20.50;99.90;;;;;;5063136;28;20108;-76
2021/06/28 00:42:24;;;;;;;2.08;1.65;;;20.50;99.90;;;;;;5042744;28;20033;-76
2021/06/28 00:44:50;;;;;;;1.52;1.42;;;20.40;99.90;;;;;;5053405;28;20064;-77
2021/06/28 00:47:16;;;;;;;2.35;1.30;;;20.40;99.90;;;;;;5063708;28;20029;-77
2021/06/28 00:49:41;;;;;;;1.73;1.23;;;20.40;99.90;;;;;;5043529;28;20039;-78
2021/06/28 00:52:07;;;;;;;2.45;1.58;;;20.30;99.90;;;;;;5069274;28;20020;-77
2021/06/28 00:54:33;;;;;;;2.35;1.42;;;20.30;99.90;;;;;;5039396;28;20398;-77
2021/06/28 00:57:00;;;;;;;1.45;1.35;;;20.20;99.90;;;;;;5060441;28;20075;-78
2021/06/28 00:59:27;;;;;;;1.50;1.40;;;20.20;99.90;;;;;;5049673;28;20107;-78
2021/06/28 01:01:52;;;;;;;3.08;1.65;;;20.20;99.90;;;;;;5068918;28;20074;-77
2021/06/28 01:04:18;;;;;;;2.45;1.40;;;20.10;99.90;;;;;;5042819;28;20033;-78
2021/06/28 01:06:44;;;;;;;3.55;1.58;;;20.20;99.90;;;;;;5060887;28;20020;-78
2021/06/28 01:09:09;;;;;;;1.85;1.40;;;20.10;99.90;;;;;;5068376;28;20107;-79
2021/06/28 01:11:35;;;;;;;2.53;1.67;;;20.10;99.90;;;;;;5054089;28;20054;-78
2021/06/28 01:14:02;;;;;;;2.40;1.60;;;20.10;99.90;;;;;;5059462;28;20025;-77
2021/06/28 01:16:28;;;;;;;1.67;1.48;;;20.10;99.90;;;;;;5060572;28;20513;-78
2021/06/28 01:18:54;;;;;;;3.30;1.60;;;20.10;99.90;;;;;;5053554;28;20025;-78
2021/06/28 01:21:20;;;;;;;2.58;1.63;;;20.10;99.90;;;;;;5060441;28;20041;-77
2021/06/28 01:23:46;;;;;;;1.85;1.75;;;20.10;99.90;;;;;;5061993;28;20031;-78
2021/06/28 01:26:12;;;;;;;2.55;1.65;;;20.10;99.90;;;;;;5067189;28;20513;-77
2021/06/28 01:28:39;;;;;;;4.18;1.90;;;20.10;99.90;;;;;;5070362;28;20032;-78
2021/06/28 01:31:08;;;;;;;4.40;1.92;;;20.20;99.90;;;;;;5041533;28;20398;-77
2021/06/28 01:33:34;;;;;;;1.83;1.50;;;20.20;99.90;;;;;;5069192;28;20024;-78
2021/06/28 01:35:59;;;;;;;2.35;1.95;;;20.20;99.90;;;;;;5052204;28;20032;-78
2021/06/28 01:38:25;;;;;;;2.03;1.92;;;20.20;99.90;;;;;;5039587;28;20044;-77
2021/06/28 01:40:51;;;;;;;4.18;2.13;;;20.20;99.90;;;;;;5061668;28;20024;-79
2021/06/28 01:43:18;;;;;;;2.63;2.10;;;20.20;99.90;;;;;;5039855;28;20024;-78
2021/06/28 01:45:45;;;;;;;2.28;2.08;;;20.10;99.90;;;;;;5043567;28;20052;-78
2021/06/28 01:48:11;;;;;;;2.70;2.22;;;20.30;99.90;;;;;;5058928;28;20028;-78
2021/06/28 01:50:39;;;;;;;2.95;2.13;;;20.20;99.90;;;;;;5063768;28;20055;-78
2021/06/28 01:53:06;;;;;;;3.47;1.90;;;20.10;99.90;;;;;;5054196;28;20024;-79
2021/06/28 01:55:33;;;;;;;2.45;2.25;;;20.00;99.90;;;;;;5047853;28;20048;-78
2021/06/28 01:58:00;;;;;;;3.40;2.33;;;20.10;99.90;;;;;;5053524;28;20044;-78
2021/06/28 02:00:34;;;;;;;2.15;1.85;;;20.10;99.90;;;;;;5065038;28;20108;-77
2021/06/28 02:03:03;;;;;;;2.38;1.83;;;20.10;99.90;;;;;;5071089;28;20393;-77
2021/06/28 02:05:32;;;;;;;2.13;1.77;;;20.10;99.90;;;;;;5061592;28;20116;-77
2021/06/28 02:07:58;;;;;;;2.20;2.00;;;20.10;99.90;;;;;;5055498;28;20375;-77
2021/06/28 02:10:23;;;;;;;2.10;1.90;;;20.20;99.90;;;;;;5044471;28;20033;-78
2021/06/28 02:12:49;;;;;;;2.30;1.70;;;20.30;99.90;;;;;;5045645;28;20035;-77
2021/06/28 02:15:20;;;;;;;2.47;1.90;;;20.20;99.90;;;;;;5045117;28;20069;-76
2021/06/28 02:17:45;;;;;;;1.70;1.60;;;20.20;99.90;;;;;;5054410;28;20021;-78
2021/06/28 02:20:11;;;;;;;1.65;1.52;;;20.20;99.90;;;;;;5038075;28;20020;-77
2021/06/28 02:22:38;;;;;;;3.47;1.90;;;20.30;99.90;;;;;;5058741;28;20032;-78
2021/06/28 02:25:06;;;;;;;1.83;1.63;;;20.30;99.90;;;;;;5042002;28;20074;-78
2021/06/28 02:27:32;;;;;;;3.25;1.58;;;20.30;99.90;;;;;;5038232;28;20409;-79
2021/06/28 02:29:58;;;;;;;2.22;1.63;;;20.30;99.90;;;;;;5062373;28;20028;-79
2021/06/28 02:32:23;;;;;;;1.50;1.40;;;20.20;99.90;;;;;;5064860;28;20029;-77
2021/06/28 02:34:49;;;;;;;3.20;1.55;;;20.20;99.90;;;;;;5058328;28;20024;-77
2021/06/28 02:37:14;;;;;;;1.90;1.50;;;20.20;99.90;;;;;;5056030;28;20087;-78
2021/06/28 02:39:40;;;;;;;1.75;1.65;;;20.20;99.90;;;;;;5054770;28;20033;-76
2021/06/28 02:42:06;;;;;;;1.85;1.60;;;20.20;99.90;;;;;;5071342;28;20047;-78
2021/06/28 02:44:31;;;;;;;3.90;1.70;;;20.10;99.90;;;;;;5053228;28;20071;-77
2021/06/28 02:46:57;;;;;;;2.17;1.80;;;20.10;99.90;;;;;;5070812;28;20103;-78
2021/06/28 02:49:22;;;;;;;1.70;1.60;;;20.10;99.90;;;;;;5042187;28;20033;-76
2021/06/28 02:51:48;;;;;;;2.88;1.90;;;20.10;99.90;;;;;;5068196;28;20032;-78
2021/06/28 02:54:13;;;;;;;1.73;1.63;;;20.10;99.90;;;;;;5042195;28;20486;-77
2021/06/28 02:56:39;;;;;;;2.85;1.52;;;20.10;99.90;;;;;;5062205;28;20118;-77
2021/06/28 02:59:06;;;;;;;1.60;1.50;;;20.10;99.90;;;;;;5043169;28;20425;-77
2021/06/28 03:01:33;;;;;;;1.90;1.70;;;20.10;99.90;;;;;;5063056;28;20494;-77
2021/06/28 03:03:59;;;;;;;2.58;1.85;;;20.10;99.90;;;;;;5065225;28;20024;-78
2021/06/28 03:06:24;;;;;;;1.95;1.75;;;20.10;99.90;;;;;;5049745;28;20509;-78
2021/06/28 03:08:50;;;;;;;1.88;1.77;;;20.10;99.90;;;;;;5059055;28;20111;-77
2021/06/28 03:11:18;;;;;;;2.13;1.67;;;20.00;99.90;;;;;;5043997;28;20039;-77
2021/06/28 03:13:44;;;;;;;2.25;1.80;;;20.10;99.90;;;;;;5059107;28;20025;-77
2021/06/28 03:16:10;;;;;;;2.03;1.92;;;20.00;99.90;;;;;;5062671;28;20075;-77
2021/06/28 03:18:36;;;;;;;1.92;1.83;;;20.10;99.90;;;;;;5060782;28;20397;-77
2021/06/28 03:21:07;;;;;;;1.90;1.80;;;20.00;99.90;;;;;;5062687;28;20025;-77
2021/06/28 03:23:32;;;;;;;1.83;1.70;;;20.00;99.90;;;;;;5063159;28;20017;-77
2021/06/28 03:25:58;;;;;;;2.20;1.90;;;20.00;99.90;;;;;;5064989;28;20029;-78
2021/06/28 03:28:23;;;;;;;3.35;2.05;;;19.90;99.90;;;;;;5061482;28;20025;-77
2021/06/28 03:30:49;;;;;;;1.70;1.60;;;19.90;99.90;;;;;;5064515;28;20025;-76
2021/06/28 03:33:15;;;;;;;3.33;1.83;;;19.90;99.90;;;;;;5054475;28;20025;-77
2021/06/28 03:35:40;;;;;;;4.13;2.38;;;20.00;99.90;;;;;;5070214;28;20099;-78
2021/06/28 03:38:06;;;;;;;2.55;1.73;;;20.10;99.90;;;;;;5061846;28;20029;-78
2021/06/28 03:40:32;;;;;;;5.20;2.10;;;20.30;99.90;;;;;;5060971;28;20091;-78
2021/06/28 03:43:04;;;;;;;3.33;2.53;;;20.40;99.90;;;;;;5070545;28;20027;-78
2021/06/28 03:45:30;;;;;;;2.58;2.38;;;20.50;99.90;;;;;;5071663;28;20032;-77
2021/06/28 03:47:55;;;;;;;1.95;1.85;;;20.50;99.90;;;;;;5045333;28;20044;-78
2021/06/28 03:50:21;;;;;;;2.45;1.92;;;20.50;99.90;;;;;;5063993;28;20482;-76
2021/06/28 03:52:47;;;;;;;2.17;1.80;;;20.50;99.90;;;;;;5062177;28;20083;-78
2021/06/28 03:55:12;;;;;;;2.47;2.25;;;20.50;99.90;;;;;;5044501;28;20526;-77
2021/06/28 03:57:38;;;;;;;2.88;2.50;;;20.50;99.90;;;;;;5057577;28;20032;-77
2021/06/28 04:00:10;;;;;;;3.10;2.60;;;20.50;99.90;;;;;;5059027;28;20021;-77
2021/06/28 04:02:39;;;;;;;4.30;2.70;;;20.40;99.90;;;;;;5040854;28;20406;-78
2021/06/28 04:05:06;;;;;;;2.30;2.10;;;20.20;99.90;;;;;;5050603;28;20401;-78
2021/06/28 04:07:31;;;;;;;2.38;2.17;;;20.10;99.90;;;;;;5060259;28;20448;-77
2021/06/28 04:09:58;;;;;;;3.92;2.63;;;20.10;99.90;;;;;;5061971;28;20025;-78
2021/06/28 04:12:24;;;;;;;2.92;2.55;;;20.00;99.90;;;;;;5060514;28;20063;-77
2021/06/28 04:14:49;;;;;;;2.58;2.38;;;20.00;99.90;;;;;;5072419;28;20020;-78
2021/06/28 04:17:15;;;;;;;2.88;2.17;;;20.10;99.90;;;;;;5059145;28;20474;-78
2021/06/28 04:19:40;;;;;;;2.53;2.25;;;20.10;99.90;;;;;;5056407;28;20031;-77
2021/06/28 04:22:06;;;;;;;2.70;2.50;;;20.10;99.90;;;;;;5072363;28;20034;-77
2021/06/28 04:24:32;;;;;;;3.70;2.60;;;20.10;99.90;;;;;;5066617;28;20036;-77
2021/06/28 04:26:57;;;;;;;2.58;2.38;;;20.10;99.90;;;;;;5061206;28;20498;-78
2021/06/28 04:29:23;;;;;;;2.95;2.60;;;20.20;99.90;;;;;;5068416;28;20032;-78
2021/06/28 04:31:50;;;;;;;7.15;2.60;;;20.20;99.90;;;;;;5039465;28;20095;-78
2021/06/28 04:34:15;;;;;;;2.47;2.35;;;20.30;99.90;;;;;;5061688;28;20057;-78
2021/06/28 04:36:41;;;;;;;4.20;2.33;;;20.40;99.90;;;;;;5058645;28;20048;-78
2021/06/28 04:39:07;;;;;;;9.50;2.65;;;20.70;99.90;;;;;;5057771;28;20021;-76
2021/06/28 04:41:32;;;;;;;7.00;2.63;;;20.90;99.90;;;;;;5074764;28;20027;-78
2021/06/28 04:43:58;;;;;;;3.40;2.47;;;20.80;99.90;;;;;;5072044;28;20036;-76
2021/06/28 04:46:23;;;;;;;5.57;2.50;;;20.70;99.90;;;;;;5072152;28;20037;-77
2021/06/28 04:48:49;;;;;;;6.60;3.40;;;20.50;99.90;;;;;;5057733;28;20032;-76
2021/06/28 04:51:14;;;;;;;5.85;2.35;;;20.50;99.90;;;;;;5061405;28;20452;-78
2021/06/28 04:53:40;;;;;;;4.03;3.08;;;20.40;99.90;;;;;;5069432;28;20057;-77
2021/06/28 04:56:05;;;;;;;6.20;2.67;;;20.40;99.90;;;;;;5065657;28;20441;-76
2021/06/28 04:58:31;;;;;;;6.35;2.80;;;20.50;99.90;;;;;;5057784;28;20031;-77
2021/06/28 05:00:57;;;;;;;2.80;2.15;;;20.50;99.90;;;;;;5057740;28;20016;-77
2021/06/28 05:03:23;;;;;;;4.00;2.55;;;20.50;99.90;;;;;;5070980;28;20047;-76
2021/06/28 05:05:48;;;;;;;7.43;2.33;;;20.50;99.90;;;;;;5053994;28;20438;-77
2021/06/28 05:08:14;;;;;;;3.88;2.78;;;20.50;99.90;;;;;;5062893;28;20036;-78
2021/06/28 05:10:40;;;;;;;6.13;2.90;;;20.50;99.90;;;;;;5064062;28;20108;-78
2021/06/28 05:13:05;;;;;;;5.70;2.95;;;20.60;99.90;;;;;;5064175;28;20024;-78
2021/06/28 05:15:31;;;;;;;4.32;2.78;;;20.90;99.90;;;;;;5052228;28;20025;-78
2021/06/28 05:17:57;;;;;;;2.78;2.13;;;21.50;99.90;;;;;;5047627;28;20025;-77
2021/06/28 05:20:22;;;;;;;3.90;2.13;;;22.60;99.60;;;;;;5040659;28;20025;-78
2021/06/28 05:22:48;;;;;;;4.22;1.85;;;23.40;1.00;;;;;;5064957;28;20090;-78
2021/06/28 05:25:13;;;;;;;4.55;1.90;;;24.30;99.90;;;;;;5066173;28;20107;-78
2021/06/28 05:27:40;;;;;;;2.47;1.85;;;25.40;99.90;;;;;;5055581;28;20037;-77
2021/06/28 05:30:08;;;;;;;6.13;2.17;;;25.90;99.90;;;;;;5065491;28;20028;-78
2021/06/28 05:32:34;;;;;;;5.13;1.90;;;26.10;1.00;;;;;;5041241;28;20494;-77
2021/06/28 05:35:00;;;;;;;4.35;1.83;;;26.20;1.00;;;;;;5064295;28;20044;-79
2021/06/28 05:37:25;;;;;;;3.70;1.80;;;26.20;99.90;;;;;;5059109;28;20417;-78
2021/06/28 05:39:51;;;;;;;2.67;1.70;;;26.30;90.40;;;;;;5064348;28;20115;-76
2021/06/28 05:42:17;;;;;;;2.50;1.65;;;26.60;1.00;;;;;;5059808;28;20032;-77
2021/06/28 05:44:43;;;;;;;2.80;1.33;;;26.90;99.90;;;;;;5076190;28;20397;-78
2021/06/28 05:47:11;;;;;;;1.88;1.30;;;26.70;99.90;;;;;;5065550;28;20021;-76
2021/06/28 05:49:37;;;;;;;1.85;1.25;;;27.00;99.90;;;;;;5040018;28;20025;-77
2021/06/28 05:52:04;;;;;;;2.28;1.30;;;26.90;99.90;;;;;;5043730;28;20021;-78
2021/06/28 05:54:30;;;;;;;1.63;1.30;;;27.10;93.60;;;;;;5066460;28;20035;-76
2021/06/28 05:56:55;;;;;;;4.03;1.20;;;27.20;1.00;;;;;;5056427;28;20029;-78
2021/06/28 05:59:21;;;;;;;1.65;1.25;;;27.10;1.00;;;;;;5058125;28;20032;-78
2021/06/28 06:01:47;;;;;;;1.63;1.20;;;27.00;1.00;;;;;;5070154;28;20037;-77
2021/06/28 06:04:15;;;;;;;12.32;2.15;;;26.90;99.90;;;;;;5058406;28;20055;-78
2021/06/28 06:06:42;;;;;;;3.72;1.83;;;27.10;99.90;;;;;;5045096;28;20021;-78
2021/06/28 06:09:07;;;;;;;6.18;1.45;;;27.40;99.90;;;;;;5055002;28;20458;-80
2021/06/28 06:11:33;;;;;;;6.10;1.67;;;27.80;99.90;;;;;;5061929;28;20029;-78
2021/06/28 06:14:00;;;;;;;2.33;2.13;;;28.80;1.00;;;;;;5060302;28;20052;-78
2021/06/28 06:16:25;;;;;;;6.45;1.45;;;28.80;1.00;;;;;;5042904;28;20536;-76
2021/06/28 06:18:52;;;;;;;4.30;1.60;;;28.60;1.00;;;;;;5059993;28;20040;-77
2021/06/28 06:21:23;;;;;;;1.70;1.15;;;28.00;1.00;;;;;;5058620;28;20091;-77
2021/06/28 06:23:50;;;;;;;1.50;1.40;;;28.10;99.90;;;;;;5063693;28;20055;-77
2021/06/28 06:26:16;;;;;;;5.15;1.50;;;27.20;1.00;;;;;;5060010;28;20090;-78
2021/06/28 06:28:42;;;;;;;5.03;1.50;;;27.70;99.90;;;;;;5064043;28;20078;-78
2021/06/28 06:31:07;;;;;;;4.00;1.50;;;26.70;1.00;;;;;;5041662;28;20025;-78
2021/06/28 06:33:33;;;;;;;1.55;1.45;;;25.90;1.00;;;;;;5048954;28;20084;-78
2021/06/28 06:35:58;;;;;;;3.38;2.38;;;26.30;1.00;;;;;;5064650;28;20033;-78
2021/06/28 06:38:24;;;;;;;3.53;1.65;;;25.80;1.00;;;;;;5051980;28;20473;-78
2021/06/28 06:40:50;;;;;;;2.33;1.80;;;25.60;91.60;;;;;;5059093;28;20029;-79
2021/06/28 06:43:16;;;;;;;3.38;2.13;;;25.70;99.90;;;;;;5072731;28;20470;-77
2021/06/28 06:45:42;;;;;;;4.55;1.70;;;25.30;99.90;;;;;;5066897;28;20025;-78
2021/06/28 06:48:08;;;;;;;2.38;1.65;;;25.10;99.90;;;;;;5067598;28;20047;-77
2021/06/28 06:50:33;;;;;;;2.90;1.48;;;25.00;99.90;;;;;;5060688;28;20032;-78
2021/06/28 06:52:59;;;;;;;2.00;1.70;;;24.70;1.00;;;;;;5064520;28;20020;-78
2021/06/28 06:55:26;;;;;;;2.65;1.83;;;24.50;1.00;;;;;;5068563;28;20021;-79
2021/06/28 06:57:52;;;;;;;3.05;2.20;;;24.50;92.10;;;;;;5065393;28;20473;-78
2021/06/28 07:00:20;;;;;;;6.13;2.65;;;24.60;60.80;;;;;;5051409;28;20028;-78
2021/06/28 07:02:46;;;;;;;3.58;2.08;;;24.90;25.50;;;;;;5063694;28;20436;-78
2021/06/28 07:05:14;;;;;;;1.95;1.73;;;25.10;1.00;;;;;;5056881;28;20539;-79
2021/06/28 07:07:40;;;;;;;3.83;1.95;;;25.10;1.00;;;;;;5063425;28;20032;-79
2021/06/28 07:10:14;;;;;;;1.95;1.85;;;25.40;1.00;;;;;;5056901;28;20021;-77
2021/06/28 07:12:40;;;;;;;9.00;2.05;;;25.70;99.90;;;;;;5048510;28;20029;-78
2021/06/28 07:15:07;;;;;;;4.50;2.10;;;25.40;99.90;;;;;;5067287;28;20024;-79
2021/06/28 07:17:33;;;;;;;6.63;2.35;;;25.10;1.00;;;;;;5069523;28;20481;-78
2021/06/28 07:19:58;;;;;;;1.90;1.70;;;25.20;1.00;;;;;;5057349;28;20027;-79
2021/06/28 07:22:25;;;;;;;5.63;2.30;;;25.00;1.00;;;;;;5068172;28;20108;-78
2021/06/28 07:24:50;;;;;;;3.78;1.40;;;25.00;1.00;;;;;;5065028;28;20502;-78
2021/06/28 07:27:16;;;;;;;5.82;2.13;;;25.10;37.60;;;;;;5069215;28;20033;-77
2021/06/28 07:29:42;;;;;;;3.00;1.65;;;25.20;21.30;;;;;;5063910;28;20333;-78
2021/06/28 07:32:07;;;;;;;3.28;1.73;;;25.40;1.00;;;;;;5061982;28;20059;-78
2021/06/28 07:34:33;;;;;;;2.45;1.65;;;25.90;1.00;;;;;;5070493;28;20080;-78
2021/06/28 07:36:58;;;;;;;5.13;2.30;;;25.70;1.00;;;;;;5063753;28;20091;-78
2021/06/28 07:39:24;;;;;;;3.97;1.55;;;26.00;99.90;;;;;;5068111;28;20020;-78
2021/06/28 07:41:50;;;;;;;3.03;1.63;;;26.20;99.90;;;;;;5073976;28;20108;-79
2021/06/28 07:44:16;;;;;;;4.07;1.50;;;26.20;99.90;;;;;;5066598;28;20082;-78
2021/06/28 07:46:42;;;;;;;1.85;1.75;;;26.30;99.90;;;;;;5048176;28;20439;-78
2021/06/28 07:49:08;;;;;;;1.63;1.45;;;26.40;99.90;;;;;;5061550;28;20029;-78
2021/06/28 07:51:36;;;;;;;3.05;1.65;;;26.40;99.90;;;;;;5072908;28;20394;-77
2021/06/28 07:54:06;;;;;;;1.55;1.30;;;26.20;99.90;;;;;;5046594;28;20024;-77
2021/06/28 07:56:32;;;;;;;1.95;1.63;;;26.50;99.90;;;;;;5056823;28;20036;-77
2021/06/28 07:58:58;;;;;;;1.50;1.40;;;26.40;99.90;;;;;;5073367;28;20497;-78
2021/06/28 08:01:23;;;;;;;3.13;1.70;;;26.60;95.50;;;;;;5050038;28;20174;-77
2021/06/28 08:03:49;;;;;;;1.60;1.50;;;26.90;23.80;;;;;;5071402;28;20021;-80
2021/06/28 08:06:17;;;;;;;1.92;1.83;;;27.00;1.00;;;;;;5050114;28;20025;-78
2021/06/28 08:08:44;;;;;;;1.98;1.45;;;26.90;1.00;;;;;;5065239;28;20023;-78
2021/06/28 08:11:10;;;;;;;2.75;1.55;;;27.10;1.00;;;;;;5065946;28;20021;-78
2021/06/28 08:13:40;;;;;;;2.92;1.50;;;27.00;1.00;;;;;;5039612;28;20033;-78
2021/06/28 08:16:06;;;;;;;6.35;2.50;;;26.70;1.00;;;;;;5065898;28;20104;-78
2021/06/28 08:18:32;;;;;;;4.38;2.00;;;26.60;1.00;;;;;;5061189;28;20063;-77
2021/06/28 08:20:57;;;;;;;2.97;1.70;;;26.60;1.00;;;;;;5071803;28;20028;-79
2021/06/28 08:23:23;;;;;;;3.00;1.70;;;26.60;1.00;;;;;;5054811;28;20575;-78
2021/06/28 08:25:48;;;;;;;2.33;1.33;;;26.90;1.00;;;;;;5056931;28;20025;-78
2021/06/28 08:28:14;;;;;;;2.15;1.55;;;27.00;1.00;;;;;;5055218;28;20021;-77
2021/06/28 08:30:40;;;;;;;1.85;1.70;;;27.40;1.00;;;;;;5056935;28;20075;-77
2021/06/28 08:33:06;;;;;;;2.53;2.10;;;27.90;1.00;;;;;;5071769;28;20405;-77
2021/06/28 08:35:31;;;;;;;1.20;1.10;;;27.80;99.90;;;;;;5057449;28;20393;-77
2021/06/28 08:37:57;;;;;;;2.03;1.35;;;27.70;99.90;;;;;;5071078;28;20028;-78
2021/06/28 08:40:23;;;;;;;2.05;1.65;;;27.40;99.90;;;;;;5067371;28;20021;-77
2021/06/28 08:42:49;;;;;;;1.60;1.30;;;27.30;99.90;;;;;;5054605;28;20028;-78
2021/06/28 08:45:15;;;;;;;1.98;1.38;;;28.00;99.90;;;;;;5058255;28;20033;-79
2021/06/28 08:47:42;;;;;;;1.73;1.30;;;28.20;99.90;;;;;;5054834;28;20024;-78
2021/06/28 08:50:09;;;;;;;8.88;2.15;;;28.30;99.90;;;;;;5072354;28;20031;-78
2021/06/28 08:52:38;;;;;;;2.63;1.45;;;28.70;99.90;;;;;;5056772;28;20024;-78
2021/06/28 08:55:06;;;;;;;1.67;1.30;;;28.70;99.90;;;;;;5043161;28;20076;-77
2021/06/28 08:57:32;;;;;;;2.83;1.35;;;28.60;99.90;;;;;;5063342;28;20380;-78
2021/06/28 08:59:58;;;;;;;2.45;1.40;;;28.30;99.90;;;;;;5056030;28;20019;-78
2021/06/28 09:02:23;;;;;;;2.92;1.40;;;28.50;99.90;;;;;;5062542;28;20386;-78
2021/06/28 09:05:02;;;;;;;1.50;1.40;;;28.30;99.90;;;;;;5063599;28;20025;-78
2021/06/28 09:07:28;;;;;;;1.75;1.30;;;27.90;99.90;;;;;;5068952;28;20029;-78
2021/06/28 09:09:54;;;;;;;2.80;1.20;;;27.80;99.90;;;;;;5052453;28;20036;-77
2021/06/28 09:12:20;;;;;;;2.42;1.50;;;28.50;99.90;;;;;;5053769;28;20470;-78
2021/06/28 09:14:55;;;;;;;2.15;1.27;;;28.60;99.90;;;;;;5064506;28;20126;-79
2021/06/28 09:17:30;;;;;;;2.95;1.40;;;28.70;82.50;;;;;;5059066;28;20017;-79
2021/06/28 09:20:22;;;;;;;1.30;1.20;;;28.40;66.60;;;;;;5064610;28;20028;-78
2021/06/28 09:22:50;;;;;;;2.88;1.30;;;28.90;64.60;;;;;;5055337;28;20587;-79
2021/06/28 09:25:37;;;;;;;2.95;1.33;;;28.90;34.10;;;;;;5054945;28;20072;-79
2021/06/28 09:28:04;;;;;;;2.33;1.45;;;28.10;27.10;;;;;;5053289;28;20208;-78
2021/06/28 09:30:30;;;;;;;3.05;1.40;;;28.10;38.00;;;;;;5069302;28;20084;-79
2021/06/28 09:33:01;;;;;;;2.10;1.40;;;28.20;43.10;;;;;;5081139;28;20067;-77
2021/06/28 09:35:35;;;;;;;1.52;1.42;;;28.60;30.60;;;;;;5054854;28;20120;-78
2021/06/28 09:38:04;;;;;;;1.92;1.50;;;28.50;33.80;;;;;;5072385;28;20047;-77
2021/06/28 09:40:30;;;;;;;3.42;1.17;;;28.60;33.00;;;;;;5050237;28;20034;-78
2021/06/28 09:42:55;;;;;;;3.45;1.00;;;28.40;1.00;;;;;;5071116;28;20016;-78
2021/06/28 09:45:21;;;;;;;4.43;1.30;;;28.70;1.00;;;;;;5058231;28;20044;-78
2021/06/28 09:47:50;;;;;;;1.70;1.55;;;28.70;1.00;;;;;;5052302;28;20316;-78
2021/06/28 09:50:18;;;;;;;1.35;1.25;;;28.90;1.00;;;;;;5050706;28;20035;-78
2021/06/28 09:52:50;;;;;;;1.30;1.10;;;29.20;1.00;;;;;;5071814;28;20020;-78
2021/06/28 09:55:21;;;;;;;1.77;1.17;;;29.20;1.00;;;;;;5053821;28;20048;-82
2021/06/28 09:58:08;;;;;;;1.50;1.30;;;28.90;1.00;;;;;;5057453;28;20012;-79
2021/06/28 10:00:43;;;;;;;1.30;1.20;;;29.80;1.00;;;;;;5064055;28;20029;-79
2021/06/28 10:03:32;;;;;;;1.27;1.10;;;29.60;1.00;;;;;;5057552;28;20029;-78
2021/06/28 10:06:09;;;;;;;3.78;2.08;;;30.20;1.00;;;;;;5072273;28;20048;-78
2021/06/28 10:08:37;;;;;;;2.80;1.27;;;30.20;1.00;;;;;;5069054;28;20063;-77
2021/06/28 10:11:21;;;;;;;1.45;1.20;;;30.30;1.00;;;;;;5071789;28;20078;-79
2021/06/28 10:13:56;;;;;;;1.20;1.10;;;30.10;1.00;;;;;;5067512;28;20024;-78
2021/06/28 10:16:24;;;;;;;3.10;1.00;;;29.90;1.00;;;;;;5070625;28;20028;-79
2021/06/28 10:18:55;;;;;;;3.30;1.08;;;30.00;1.00;;;;;;5038696;28;20027;-78
2021/06/28 10:21:21;;;;;;;1.00;0.90;;;30.30;1.00;;;;;;5070219;28;20085;-80
2021/06/28 10:23:47;;;;;;;0.82;0.82;;;30.20;1.00;;;;;;5055494;28;20028;-78
2021/06/28 10:26:12;;;;;;;1.10;1.00;;;30.10;99.90;;;;;;5053643;28;20367;-78
2021/06/28 10:28:40;;;;;;;1.13;1.00;;;30.10;99.90;;;;;;5046882;28;20391;-78
2021/06/28 10:31:07;;;;;;;1.10;1.10;;;29.50;99.90;;;;;;5041708;28;20009;-79
2021/06/28 10:33:35;;;;;;;0.95;0.95;;;30.00;99.90;;;;;;5052669;28;20067;-77
2021/06/28 10:36:04;;;;;;;0.93;0.93;;;30.00;99.90;;;;;;5068329;28;20031;-78
2021/06/28 10:38:50;;;;;;;1.98;1.10;;;29.60;99.90;;;;;;5044894;28;20017;-78
2021/06/28 10:41:39;;;;;;;1.40;1.17;;;29.30;99.90;;;;;;5067039;28;20025;-79
2021/06/28 10:44:14;;;;;;;1.08;0.90;;;29.50;99.90;;;;;;5057770;28;20017;-78
2021/06/28 10:46:42;;;;;;;1.30;1.20;;;29.50;99.90;;;;;;5059459;28;20029;-77
2021/06/28 10:49:08;;;;;;;1.27;1.08;;;30.20;99.90;;;;;;5037564;28;20512;-78
2021/06/28 10:51:42;;;;;;;2.58;1.10;;;30.50;99.90;;;;;;5060543;28;20044;-77
2021/06/28 10:54:11;;;;;;;1.90;1.48;;;30.60;99.90;;;;;;5039652;28;20021;-77
2021/06/28 10:56:37;;;;;;;2.53;1.30;;;30.60;99.90;;;;;;5057953;28;20021;-77
2021/06/28 10:59:16;;;;;;;1.60;1.30;;;30.60;99.90;;;;;;5053423;28;20035;-77
2021/06/28 11:01:44;;;;;;;4.80;1.15;;;30.40;99.90;;;;;;5071132;28;20117;-77
2021/06/28 11:04:14;;;;;;;2.92;1.42;;;30.70;99.90;;;;;;5056010;28;20107;-76
2021/06/28 11:06:51;;;;;;;1.13;0.93;;;30.50;99.90;;;;;;5071733;28;20029;-76
2021/06/28 11:09:17;;;;;;;3.88;1.00;;;30.50;99.90;;;;;;5072645;28;20028;-76
2021/06/28 11:11:46;;;;;;;2.83;1.10;;;30.60;99.90;;;;;;5062836;28;20116;-78
2021/06/28 11:14:21;;;;;;;1.73;1.17;;;30.80;99.90;;;;;;5050549;28;20478;-79
2021/06/28 11:16:56;;;;;;;1.42;1.33;;;30.90;99.90;;;;;;5042961;28;20021;-76
2021/06/28 11:20:00;;;;;;;1.45;1.35;;;31.10;99.90;;;;;;5070158;28;20088;-77
2021/06/28 11:22:26;;;;;;;2.28;1.55;;;30.90;99.90;;;;;;5054492;28;20040;-77
2021/06/28 11:25:00;;;;;;;1.10;1.05;;;31.00;99.90;;;;;;5072627;28;20032;-79
2021/06/28 11:27:27;;;;;;;1.27;1.10;;;30.70;99.90;;;;;;5037849;28;20406;-76
2021/06/28 11:29:54;;;;;;;1.35;1.02;;;30.60;99.90;;;;;;5065576;28;20486;-76
2021/06/28 11:32:23;;;;;;;1.85;0.93;;;30.30;99.90;;;;;;5075152;28;20446;-77
2021/06/28 11:34:49;;;;;;;1.42;1.33;;;30.50;99.90;;;;;;5046028;28;20021;-76
2021/06/28 11:37:15;;;;;;;1.27;1.13;;;30.80;99.90;;;;;;5054284;28;20076;-76
2021/06/28 11:39:58;;;;;;;1.98;1.25;;;30.60;99.90;;;;;;5057171;28;20074;-76
2021/06/28 11:42:25;;;;;;;5.53;1.63;;;30.70;99.90;;;;;;5069270;28;20028;-77
2021/06/28 11:44:57;;;;;;;2.45;1.27;;;30.90;99.90;;;;;;5067911;28;20034;-76
2021/06/28 11:47:45;;;;;;;1.30;1.15;;;31.50;99.90;;;;;;5060270;28;20021;-76
2021/06/28 11:50:36;;;;;;;2.40;1.00;;;31.10;99.90;;;;;;5066883;28;20032;-76
2021/06/28 11:53:13;;;;;;;2.95;1.02;;;30.70;99.90;;;;;;5051631;28;20056;-77
2021/06/28 11:55:41;;;;;;;1.38;1.27;;;30.20;99.90;;;;;;5052636;28;20028;-77
2021/06/28 11:58:07;;;;;;;2.42;1.20;;;30.00;99.90;;;;;;5074462;28;20051;-76
2021/06/28 12:00:32;;;;;;;3.80;1.35;;;29.80;99.90;;;;;;5040631;28;20021;-76
2021/06/28 12:03:24;;;;;;;3.50;1.70;;;30.50;99.90;;;;;;5066837;28;20119;-76
2021/06/28 12:05:50;;;;;;;1.30;1.20;;;30.70;99.90;;;;;;5037959;28;20080;-76
2021/06/28 12:08:23;;;;;;;2.00;1.20;;;30.60;99.90;;;;;;5068295;28;20033;-75
2021/06/28 12:11:01;;;;;;;1.88;1.10;;;30.60;99.90;;;;;;5055960;28;20100;-76
2021/06/28 12:13:39;;;;;;;1.38;1.13;;;30.70;99.90;;;;;;5054678;28;20448;-76
2021/06/28 12:16:24;;;;;;;3.63;1.17;;;31.10;99.90;;;;;;5062504;28;20044;-77
2021/06/28 12:19:04;;;;;;;1.40;1.30;;;31.20;99.90;;;;;;5059870;28;20017;-77
2021/06/28 12:21:32;;;;;;;1.95;1.08;;;31.50;99.90;;;;;;5042313;28;20028;-76
2021/06/28 12:24:08;;;;;;;1.25;1.10;;;31.50;99.90;;;;;;5063033;28;20017;-77
2021/06/28 12:26:36;;;;;;;2.80;1.60;;;31.50;99.90;;;;;;5060954;28;20614;-75
2021/06/28 12:29:28;;;;;;;2.47;1.42;;;31.40;99.90;;;;;;5058212;28;20449;-75
2021/06/28 12:32:14;;;;;;;2.17;1.33;;;31.10;99.90;;;;;;5064411;28;20025;-77
2021/06/28 12:34:52;;;;;;;2.10;1.00;;;31.30;99.90;;;;;;5097135;28;20084;-76
2021/06/28 12:37:29;;;;;;;2.30;1.60;;;31.10;99.90;;;;;;5089984;28;20043;-78
2021/06/28 12:40:12;;;;;;;2.03;1.20;;;30.60;99.90;;;;;;5081684;28;20474;-76
2021/06/28 12:42:40;;;;;;;1.73;1.33;;;30.40;99.90;;;;;;5067963;28;20040;-76
2021/06/28 12:45:06;;;;;;;1.73;1.48;;;30.10;99.90;;;;;;5074102;28;20017;-75
2021/06/28 12:47:31;;;;;;;1.65;1.30;;;30.40;99.90;;;;;;5084121;28;20082;-76
2021/06/28 12:49:58;;;;;;;2.88;1.48;;;30.10;99.90;;;;;;5088898;28;20024;-76
2021/06/28 12:52:33;;;;;;;1.58;1.48;;;30.00;99.90;;;;;;5097591;28;20086;-76